International Virtual Aviation Organisation

Russian Federation and Kazakhstan MCD

 

Карточка аэропорта UACP

Внимание!
Информация на этой странице в стадии наполнения.
Если вы не увидели какой-то информации, или заметили неточность - пожалуйста сообщите нам!
Спасибо!
Команда RU-STAFF
Название аэропортаПетропавловск
Название аэропорта (англ.)Petropavlovsk
Превышение459 ft. (139.9 m.)
Координаты54°46.464', 69°11.1'
Высота перехода2100
Эшелон переходаFL40
Коды ответчика7260-7263
Зона ОрВДАстана РПИ (UACC)
Данные METARUACP 180800Z 22004MPS 9999 SCT008 OVC033CB M03/M03 Q1015 R23/4/2038 NOSIG RMK QFE749/0999
Проноз погоды (TAF)NODATA
NOTAMshow/hide NOTAM
AWOS   TABLE

Информация о ВПП

ВПП Длина ВПП (м.) Покрытие Курс ВПП Частота ILS
052802Асфальтобетон53 
232802Асфальтобетон233108.3

Диспетчерские позиции

Позывной Наименование органа УВД Частота
UACP_APPПетропавловск Вышка123.7



Спутниковое изображение